sensor_id;sensor_type;location;lat;lon;timestamp;pressure;altitude;pressure_sealevel;temperature;humidity
62111;BME280;48102;47.526;19.072;2023-09-12T03:41:40;100229.06;;;15.79;100.00
62111;BME280;48102;47.526;19.072;2023-09-12T03:44:44;100236.44;;;15.81;100.00
62111;BME280;48102;47.526;19.072;2023-09-12T03:47:47;100232.28;;;15.27;100.00
62111;BME280;48102;47.526;19.072;2023-09-12T03:50:50;100230.47;;;15.28;100.00
62111;BME280;48102;47.526;19.072;2023-09-12T03:53:53;100231.34;;;15.28;100.00
62111;BME280;48102;47.526;19.072;2023-09-12T03:56:56;100231.22;;;15.30;100.00
62111;BME280;48102;47.526;19.072;2023-09-12T03:59:59;100231.13;;;15.31;100.00
62111;BME280;48102;47.526;19.072;2023-09-12T04:03:03;100231.13;;;15.31;100.00
62111;BME280;48102;47.526;19.072;2023-09-12T04:06:06;100224.13;;;15.30;100.00
62111;BME280;48102;47.526;19.072;2023-09-12T04:09:09;100242.81;;;15.29;100.00
62111;BME280;48102;47.526;19.072;2023-09-12T04:12:12;100233.13;;;15.28;100.00
62111;BME280;48102;47.526;19.072;2023-09-12T04:15:15;100237.50;;;15.29;100.00
62111;BME280;48102;47.526;19.072;2023-09-12T04:18:18;100233.78;;;15.31;100.00
62111;BME280;48102;47.526;19.072;2023-09-12T04:21:21;100235.38;;;15.34;100.00
62111;BME280;48102;47.526;19.072;2023-09-12T04:24:24;100241.91;;;15.41;100.00
62111;BME280;48102;47.526;19.072;2023-09-12T04:27:27;100240.53;;;15.48;100.00
62111;BME280;48102;47.526;19.072;2023-09-12T04:30:30;100248.69;;;15.58;100.00
62111;BME280;48102;47.526;19.072;2023-09-12T04:33:33;100248.34;;;15.63;100.00
62111;BME280;48102;47.526;19.072;2023-09-12T04:36:37;100241.03;;;15.66;100.00
62111;BME280;48102;47.526;19.072;2023-09-12T04:39:39;100244.31;;;15.70;100.00
62111;BME280;48102;47.526;19.072;2023-09-12T04:42:43;100252.59;;;15.78;100.00
62111;BME280;48102;47.526;19.072;2023-09-12T04:45:45;100248.41;;;15.87;100.00
62111;BME280;48102;47.526;19.072;2023-09-12T04:48:50;100260.47;;;16.03;100.00
62111;BME280;48102;47.526;19.072;2023-09-12T04:51:52;100262.31;;;16.14;100.00
62111;BME280;48102;47.526;19.072;2023-09-12T04:54:55;100260.78;;;16.23;100.00
62111;BME280;48102;47.526;19.072;2023-09-12T04:57:58;100261.06;;;16.31;100.00
62111;BME280;48102;47.526;19.072;2023-09-12T05:01:02;100263.91;;;16.41;100.00
62111;BME280;48102;47.526;19.072;2023-09-12T05:04:05;100267.69;;;16.49;100.00
62111;BME280;48102;47.526;19.072;2023-09-12T05:07:09;100267.81;;;16.59;100.00
62111;BME280;48102;47.526;19.072;2023-09-12T05:10:12;100268.81;;;16.69;100.00
62111;BME280;48102;47.526;19.072;2023-09-12T05:13:15;100268.97;;;16.79;100.00
62111;BME280;48102;47.526;19.072;2023-09-12T05:16:18;100269.00;;;16.90;100.00
62111;BME280;48102;47.526;19.072;2023-09-12T05:19:21;100267.69;;;17.07;100.00
62111;BME280;48102;47.526;19.072;2023-09-12T05:22:25;100272.91;;;17.20;100.00
62111;BME280;48102;47.526;19.072;2023-09-12T05:25:28;100272.66;;;17.34;100.00
62111;BME280;48102;47.526;19.072;2023-09-12T05:28:32;100270.72;;;17.47;100.00
62111;BME280;48102;47.526;19.072;2023-09-12T05:31:35;100268.06;;;17.59;100.00
62111;BME280;48102;47.526;19.072;2023-09-12T05:34:39;100267.06;;;17.71;100.00
62111;BME280;48102;47.526;19.072;2023-09-12T05:37:41;100276.75;;;17.83;100.00
62111;BME280;48102;47.526;19.072;2023-09-12T05:40:44;100278.31;;;17.97;100.00
62111;BME280;48102;47.526;19.072;2023-09-12T05:43:50;100288.53;;;18.13;100.00
62111;BME280;48102;47.526;19.072;2023-09-12T05:46:52;100285.47;;;18.28;100.00
62111;BME280;48102;47.526;19.072;2023-09-12T05:49:56;100290.25;;;18.46;100.00
62111;BME280;48102;47.526;19.072;2023-09-12T05:53:02;100290.78;;;18.61;100.00
62111;BME280;48102;47.526;19.072;2023-09-12T05:56:05;100294.87;;;18.76;100.00
62111;BME280;48102;47.526;19.072;2023-09-12T05:59:08;100295.13;;;18.94;100.00
62111;BME280;48102;47.526;19.072;2023-09-12T06:02:14;100302.34;;;19.03;100.00
62111;BME280;48102;47.526;19.072;2023-09-12T06:05:17;100294.13;;;19.16;100.00
62111;BME280;48102;47.526;19.072;2023-09-12T06:08:19;100294.47;;;19.32;100.00
62111;BME280;48102;47.526;19.072;2023-09-12T06:11:22;100302.97;;;19.47;100.00
62111;BME280;48102;47.526;19.072;2023-09-12T06:14:25;100297.16;;;19.63;100.00
62111;BME280;48102;47.526;19.072;2023-09-12T06:17:28;100310.16;;;19.77;100.00
62111;BME280;48102;47.526;19.072;2023-09-12T06:20:31;100299.34;;;19.88;100.00
62111;BME280;48102;47.526;19.072;2023-09-12T06:23:34;100307.69;;;20.04;100.00
62111;BME280;48102;47.526;19.072;2023-09-12T06:26:38;100311.78;;;20.18;100.00
62111;BME280;48102;47.526;19.072;2023-09-12T06:29:41;100317.03;;;20.29;100.00
62111;BME280;48102;47.526;19.072;2023-09-12T06:32:44;100312.38;;;20.41;100.00
62111;BME280;48102;47.526;19.072;2023-09-12T06:35:50;100313.69;;;20.57;100.00
62111;BME280;48102;47.526;19.072;2023-09-12T06:38:56;100314.25;;;20.70;100.00
62111;BME280;48102;47.526;19.072;2023-09-12T06:41:59;100310.12;;;20.85;100.00
62111;BME280;48102;47.526;19.072;2023-09-12T06:45:01;100311.66;;;20.97;100.00
62111;BME280;48102;47.526;19.072;2023-09-12T06:48:05;100314.19;;;21.09;100.00
62111;BME280;48102;47.526;19.072;2023-09-12T06:51:09;100310.19;;;21.22;98.42
62111;BME280;48102;47.526;19.072;2023-09-12T06:54:19;100313.81;;;21.41;100.00
62111;BME280;48102;47.526;19.072;2023-09-12T06:57:22;100304.47;;;21.54;100.00
62111;BME280;48102;47.526;19.072;2023-09-12T07:00:25;100308.63;;;21.67;99.20
62111;BME280;48102;47.526;19.072;2023-09-12T07:03:29;100309.00;;;21.82;98.38
62111;BME280;48102;47.526;19.072;2023-09-12T07:06:33;100306.78;;;21.95;95.01
62111;BME280;48102;47.526;19.072;2023-09-12T07:09:36;100316.78;;;22.02;94.61
62111;BME280;48102;47.526;19.072;2023-09-12T07:12:39;100313.31;;;22.10;89.40
62111;BME280;48102;47.526;19.072;2023-09-12T07:15:42;100317.97;;;22.18;89.66
62111;BME280;48102;47.526;19.072;2023-09-12T07:18:45;100322.97;;;22.31;88.31
62111;BME280;48102;47.526;19.072;2023-09-12T07:21:50;100323.03;;;22.57;89.98
62111;BME280;48102;47.526;19.072;2023-09-12T07:24:54;100327.72;;;22.72;88.09
62111;BME280;48102;47.526;19.072;2023-09-12T07:27:56;100328.41;;;22.92;86.06
62111;BME280;48102;47.526;19.072;2023-09-12T07:30:59;100330.91;;;23.12;87.42
62111;BME280;48102;47.526;19.072;2023-09-12T07:34:02;100331.50;;;23.23;86.92
62111;BME280;48102;47.526;19.072;2023-09-12T07:37:10;100330.59;;;23.15;81.14
62111;BME280;48102;47.526;19.072;2023-09-12T07:40:13;100336.41;;;23.28;81.92
62111;BME280;48102;47.526;19.072;2023-09-12T07:43:16;100332.16;;;23.51;84.13
62111;BME280;48102;47.526;19.072;2023-09-12T07:46:19;100330.94;;;23.72;82.96
62111;BME280;48102;47.526;19.072;2023-09-12T07:49:23;100329.81;;;23.91;79.43
62111;BME280;48102;47.526;19.072;2023-09-12T07:52:29;100340.12;;;24.03;78.26
62111;BME280;48102;47.526;19.072;2023-09-12T07:55:36;100325.50;;;24.06;76.80
62111;BME280;48102;47.526;19.072;2023-09-12T07:58:48;100333.72;;;24.04;76.92
62111;BME280;48102;47.526;19.072;2023-09-12T08:01:52;100338.47;;;24.11;79.89
62111;BME280;48102;47.526;19.072;2023-09-12T08:04:55;100334.12;;;24.26;76.95
62111;BME280;48102;47.526;19.072;2023-09-12T08:07:58;100324.25;;;24.43;73.19
62111;BME280;48102;47.526;19.072;2023-09-12T08:11:01;100318.72;;;24.61;73.34
62111;BME280;48102;47.526;19.072;2023-09-12T08:14:04;100319.72;;;24.76;74.39
62111;BME280;48102;47.526;19.072;2023-09-12T08:17:09;100311.47;;;24.69;70.46
62111;BME280;48102;47.526;19.072;2023-09-12T08:20:12;100318.72;;;24.93;72.36
62111;BME280;48102;47.526;19.072;2023-09-12T08:23:15;100317.50;;;25.04;68.80
62111;BME280;48102;47.526;19.072;2023-09-12T08:26:18;100317.53;;;25.12;67.15
62111;BME280;48102;47.526;19.072;2023-09-12T08:29:21;100326.94;;;25.33;69.28
62111;BME280;48102;47.526;19.072;2023-09-12T08:32:24;100322.69;;;25.46;66.54
62111;BME280;48102;47.526;19.072;2023-09-12T08:35:27;100318.06;;;25.63;65.80
62111;BME280;48102;47.526;19.072;2023-09-12T08:38:30;100316.84;;;25.82;66.05
62111;BME280;48102;47.526;19.072;2023-09-12T08:41:34;100319.94;;;26.02;65.17
62111;BME280;48102;47.526;19.072;2023-09-12T08:44:36;100318.66;;;26.21;62.81
62111;BME280;48102;47.526;19.072;2023-09-12T08:47:49;100315.50;;;26.40;60.83
62111;BME280;48102;47.526;19.072;2023-09-12T08:50:53;100321.91;;;26.47;58.63
62111;BME280;48102;47.526;19.072;2023-09-12T08:53:56;100316.06;;;26.59;59.14
62111;BME280;48102;47.526;19.072;2023-09-12T08:57:04;100315.09;;;26.74;57.67
62111;BME280;48102;47.526;19.072;2023-09-12T09:00:08;100314.41;;;26.95;55.82
62111;BME280;48102;47.526;19.072;2023-09-12T09:03:13;100311.19;;;27.15;58.13
62111;BME280;48102;47.526;19.072;2023-09-12T09:06:17;100315.37;;;27.32;52.28
62111;BME280;48102;47.526;19.072;2023-09-12T09:09:21;100305.59;;;27.46;52.34
62111;BME280;48102;47.526;19.072;2023-09-12T09:12:26;100308.03;;;27.56;50.94
62111;BME280;48102;47.526;19.072;2023-09-12T09:15:30;100310.44;;;27.80;51.93
62111;BME280;48102;47.526;19.072;2023-09-12T09:18:52;100313.03;;;28.03;51.43
62111;BME280;48102;47.526;19.072;2023-09-12T09:22:05;100313.09;;;28.10;46.79
62111;BME280;48102;47.526;19.072;2023-09-12T09:25:12;100313.25;;;28.23;45.29
62111;BME280;48102;47.526;19.072;2023-09-12T09:28:21;100307.81;;;28.23;45.35
62111;BME280;48102;47.526;19.072;2023-09-12T09:31:24;100302.84;;;28.41;44.32
62111;BME280;48102;47.526;19.072;2023-09-12T09:34:27;100309.81;;;28.50;45.60
62111;BME280;48102;47.526;19.072;2023-09-12T09:37:33;100310.81;;;28.49;44.14
62111;BME280;48102;47.526;19.072;2023-09-12T09:40:36;100302.19;;;28.61;43.79
62111;BME280;48102;47.526;19.072;2023-09-12T09:43:39;100311.50;;;28.80;42.55
62111;BME280;48102;47.526;19.072;2023-09-12T09:46:44;100313.97;;;28.96;42.83
62111;BME280;48102;47.526;19.072;2023-09-12T09:49:47;100310.69;;;29.00;42.18
62111;BME280;48102;47.526;19.072;2023-09-12T09:52:54;100315.19;;;29.15;41.31
62111;BME280;48102;47.526;19.072;2023-09-12T09:56:15;100303.97;;;29.24;41.23
62111;BME280;48102;47.526;19.072;2023-09-12T09:59:20;100309.47;;;29.38;40.35
62111;BME280;48102;47.526;19.072;2023-09-12T10:02:25;100305.94;;;29.44;41.75
62111;BME280;48102;47.526;19.072;2023-09-12T10:05:31;100302.56;;;29.35;41.62
62111;BME280;48102;47.526;19.072;2023-09-12T10:08:35;100298.63;;;29.44;39.41
62111;BME280;48102;47.526;19.072;2023-09-12T10:11:40;100301.34;;;29.44;41.94
62111;BME280;48102;47.526;19.072;2023-09-12T10:14:43;100293.56;;;29.63;40.25
62111;BME280;48102;47.526;19.072;2023-09-12T10:17:58;100301.78;;;29.76;40.51
62111;BME280;48102;47.526;19.072;2023-09-12T10:21:10;100288.13;;;29.63;41.00
62111;BME280;48102;47.526;19.072;2023-09-12T10:24:14;100279.81;;;29.78;40.71
62111;BME280;48102;47.526;19.072;2023-09-12T10:27:19;100285.97;;;29.99;39.29
62111;BME280;48102;47.526;19.072;2023-09-12T10:30:23;100288.94;;;30.18;39.29
62111;BME280;48102;47.526;19.072;2023-09-12T10:33:27;100283.97;;;30.28;38.76
62111;BME280;48102;47.526;19.072;2023-09-12T10:36:38;100281.88;;;30.43;38.27
62111;BME280;48102;47.526;19.072;2023-09-12T10:39:43;100285.88;;;30.47;38.08
62111;BME280;48102;47.526;19.072;2023-09-12T10:42:48;100286.28;;;30.51;38.00
62111;BME280;48102;47.526;19.072;2023-09-12T10:45:52;100274.78;;;30.56;37.24
62111;BME280;48102;47.526;19.072;2023-09-12T10:48:58;100276.66;;;30.42;37.89
62111;BME280;48102;47.526;19.072;2023-09-12T10:52:02;100261.19;;;30.56;38.26
62111;BME280;48102;47.526;19.072;2023-09-12T10:55:06;100263.91;;;30.69;39.59
62111;BME280;48102;47.526;19.072;2023-09-12T10:58:09;100266.88;;;30.74;37.75
62111;BME280;48102;47.526;19.072;2023-09-12T11:01:23;100273.78;;;30.77;38.18
62111;BME280;48102;47.526;19.072;2023-09-12T11:10:43;100270.59;;;31.19;36.74
62111;BME280;48102;47.526;19.072;2023-09-12T11:14:02;100266.38;;;31.30;37.11
62111;BME280;48102;47.526;19.072;2023-09-12T11:20:14;100251.16;;;31.03;38.00
62111;BME280;48102;47.526;19.072;2023-09-12T11:23:17;100249.22;;;31.30;37.39
62111;BME280;48102;47.526;19.072;2023-09-12T11:26:21;100254.37;;;31.58;36.12
62111;BME280;48102;47.526;19.072;2023-09-12T11:29:30;100249.28;;;31.68;37.70
62111;BME280;48102;47.526;19.072;2023-09-12T11:32:38;100239.28;;;31.55;36.87
62111;BME280;48102;47.526;19.072;2023-09-12T11:35:41;100249.16;;;31.50;34.54
62111;BME280;48102;47.526;19.072;2023-09-12T11:38:49;100237.91;;;31.78;34.53
62111;BME280;48102;47.526;19.072;2023-09-12T11:41:53;100228.75;;;32.10;36.63
62111;BME280;48102;47.526;19.072;2023-09-12T11:44:58;100229.53;;;32.17;34.18
62111;BME280;48102;47.526;19.072;2023-09-12T11:48:02;100221.25;;;32.31;35.41
62111;BME280;48102;47.526;19.072;2023-09-12T11:51:07;100230.53;;;32.55;35.67
62111;BME280;48102;47.526;19.072;2023-09-12T11:54:10;100229.19;;;32.64;35.23
62111;BME280;48102;47.526;19.072;2023-09-12T11:57:14;100227.22;;;32.71;32.73
62111;BME280;48102;47.526;19.072;2023-09-12T12:00:18;100223.53;;;32.84;33.78
62111;BME280;48102;47.526;19.072;2023-09-12T12:03:24;100216.31;;;32.96;33.75
62111;BME280;48102;47.526;19.072;2023-09-12T12:06:27;100213.87;;;33.25;33.48
62111;BME280;48102;47.526;19.072;2023-09-12T12:09:33;100224.78;;;33.25;33.88
62111;BME280;48102;47.526;19.072;2023-09-12T12:12:39;100202.66;;;33.33;33.28
62111;BME280;48102;47.526;19.072;2023-09-12T12:15:43;100209.87;;;33.76;33.17
62111;BME280;48102;47.526;19.072;2023-09-12T12:18:46;100198.69;;;33.65;31.47
62111;BME280;48102;47.526;19.072;2023-09-12T12:21:49;100216.25;;;33.88;32.55
62111;BME280;48102;47.526;19.072;2023-09-12T12:24:52;100210.53;;;34.08;32.54
62111;BME280;48102;47.526;19.072;2023-09-12T12:27:55;100197.59;;;34.27;32.04
62111;BME280;48102;47.526;19.072;2023-09-12T12:30:59;100196.09;;;34.78;30.56
62111;BME280;48102;47.526;19.072;2023-09-12T12:34:05;100194.34;;;35.35;31.40
62111;BME280;48102;47.526;19.072;2023-09-12T12:37:29;100195.78;;;35.95;28.26
62111;BME280;48102;47.526;19.072;2023-09-12T12:40:39;100193.25;;;36.73;27.80
62111;BME280;48102;47.526;19.072;2023-09-12T12:43:50;100183.19;;;37.39;26.49
62111;BME280;48102;47.526;19.072;2023-09-12T12:47:06;100173.72;;;38.38;24.69
62111;BME280;48102;47.526;19.072;2023-09-12T12:50:15;100172.19;;;40.85;22.62
62111;BME280;48102;47.526;19.072;2023-09-12T12:53:36;100164.28;;;43.42;20.41
62111;BME280;48102;47.526;19.072;2023-09-12T12:56:54;100169.34;;;45.30;19.91
62111;BME280;48102;47.526;19.072;2023-09-12T12:59:58;100159.25;;;47.35;17.83
62111;BME280;48102;47.526;19.072;2023-09-12T13:03:01;100157.88;;;48.45;17.12
62111;BME280;48102;47.526;19.072;2023-09-12T13:06:04;100157.50;;;49.65;15.21
62111;BME280;48102;47.526;19.072;2023-09-12T13:09:11;100159.69;;;49.09;15.53
62111;BME280;48102;47.526;19.072;2023-09-12T13:12:14;100153.53;;;49.45;15.28
62111;BME280;48102;47.526;19.072;2023-09-12T13:15:18;100147.00;;;49.62;15.78
62111;BME280;48102;47.526;19.072;2023-09-12T13:18:22;100147.97;;;50.69;15.15
62111;BME280;48102;47.526;19.072;2023-09-12T13:21:24;100154.47;;;51.75;14.68
62111;BME280;48102;47.526;19.072;2023-09-12T13:24:28;100148.09;;;51.62;15.52
62111;BME280;48102;47.526;19.072;2023-09-12T13:27:30;100140.34;;;51.31;14.30
62111;BME280;48102;47.526;19.072;2023-09-12T13:30:36;100133.62;;;51.76;13.15
62111;BME280;48102;47.526;19.072;2023-09-12T13:33:39;100132.41;;;51.89;13.78
62111;BME280;48102;47.526;19.072;2023-09-12T13:36:45;100133.22;;;51.90;13.46
62111;BME280;48102;47.526;19.072;2023-09-12T13:39:56;100125.94;;;52.33;13.28
62111;BME280;48102;47.526;19.072;2023-09-12T13:43:00;100128.81;;;50.96;13.56
62111;BME280;48102;47.526;19.072;2023-09-12T13:46:03;100125.78;;;50.07;15.64
62111;BME280;48102;47.526;19.072;2023-09-12T13:49:06;100117.03;;;50.66;14.26
62111;BME280;48102;47.526;19.072;2023-09-12T13:52:09;100126.59;;;51.54;13.53
62111;BME280;48102;47.526;19.072;2023-09-12T13:55:12;100123.03;;;52.61;13.59
62111;BME280;48102;47.526;19.072;2023-09-12T13:58:38;100121.69;;;52.23;13.57
62111;BME280;48102;47.526;19.072;2023-09-12T14:01:46;100114.59;;;52.61;13.62
62111;BME280;48102;47.526;19.072;2023-09-12T14:04:50;100119.91;;;52.82;13.62
62111;BME280;48102;47.526;19.072;2023-09-12T14:08:08;100115.66;;;53.62;12.32
62111;BME280;48102;47.526;19.072;2023-09-12T14:11:11;100120.34;;;53.19;13.81
62111;BME280;48102;47.526;19.072;2023-09-12T14:14:29;100121.16;;;53.97;12.53
62111;BME280;48102;47.526;19.072;2023-09-12T14:17:32;100110.66;;;53.75;12.22
62111;BME280;48102;47.526;19.072;2023-09-12T14:20:37;100116.72;;;53.19;12.93
62111;BME280;48102;47.526;19.072;2023-09-12T14:23:41;100098.41;;;49.16;14.94
62111;BME280;48102;47.526;19.072;2023-09-12T14:26:46;100091.59;;;45.48;17.36
62111;BME280;48102;47.526;19.072;2023-09-12T14:29:51;100088.75;;;42.88;19.25
62111;BME280;48102;47.526;19.072;2023-09-12T14:32:54;100078.84;;;41.26;21.05
62111;BME280;48102;47.526;19.072;2023-09-12T14:35:57;100076.19;;;40.00;22.61
62111;BME280;48102;47.526;19.072;2023-09-12T14:39:00;100074.69;;;39.11;22.42
62111;BME280;48102;47.526;19.072;2023-09-12T14:42:04;100071.59;;;38.34;23.80
62111;BME280;48102;47.526;19.072;2023-09-12T14:45:11;100073.41;;;37.54;23.89
62111;BME280;48102;47.526;19.072;2023-09-12T14:48:14;100075.78;;;36.97;26.07
62111;BME280;48102;47.526;19.072;2023-09-12T14:51:17;100070.78;;;37.15;25.51
62111;BME280;48102;47.526;19.072;2023-09-12T14:54:33;100070.41;;;37.34;25.00
62111;BME280;48102;47.526;19.072;2023-09-12T14:57:37;100078.84;;;37.22;24.93
62111;BME280;48102;47.526;19.072;2023-09-12T15:00:40;100081.69;;;37.32;24.17
62111;BME280;48102;47.526;19.072;2023-09-12T15:03:43;100073.41;;;37.86;23.68
62111;BME280;48102;47.526;19.072;2023-09-12T15:06:46;100077.53;;;39.47;22.32
62111;BME280;48102;47.526;19.072;2023-09-12T15:09:49;100077.91;;;41.85;20.57
62111;BME280;48102;47.526;19.072;2023-09-12T15:12:52;100082.03;;;43.13;19.13
62111;BME280;48102;47.526;19.072;2023-09-12T15:15:56;100080.16;;;44.30;18.16
62111;BME280;48102;47.526;19.072;2023-09-12T15:18:59;100078.50;;;44.85;17.45
62111;BME280;48102;47.526;19.072;2023-09-12T15:22:02;100072.97;;;42.83;19.15
62111;BME280;48102;47.526;19.072;2023-09-12T15:25:05;100082.22;;;40.43;21.35
62111;BME280;48102;47.526;19.072;2023-09-12T15:28:09;100067.22;;;38.96;22.96
62111;BME280;48102;47.526;19.072;2023-09-12T15:31:12;100073.94;;;38.63;23.37
62111;BME280;48102;47.526;19.072;2023-09-12T15:34:15;100071.66;;;38.07;24.40
62111;BME280;48102;47.526;19.072;2023-09-12T15:37:18;100064.66;;;37.08;25.87
62111;BME280;48102;47.526;19.072;2023-09-12T15:40:24;100064.50;;;36.15;27.38
62111;BME280;48102;47.526;19.072;2023-09-12T15:43:27;100065.50;;;35.18;27.88
62111;BME280;48102;47.526;19.072;2023-09-12T15:46:31;100068.78;;;34.52;28.87
62111;BME280;48102;47.526;19.072;2023-09-12T15:49:38;100055.97;;;33.63;29.23
62111;BME280;48102;47.526;19.072;2023-09-12T15:52:40;100056.31;;;33.25;29.29
62111;BME280;48102;47.526;19.072;2023-09-12T15:55:44;100057.28;;;32.82;30.43
62111;BME280;48102;47.526;19.072;2023-09-12T15:58:46;100061.88;;;32.27;30.84
62111;BME280;48102;47.526;19.072;2023-09-12T16:01:50;100055.72;;;31.88;31.51
62111;BME280;48102;47.526;19.072;2023-09-12T16:04:53;100058.66;;;31.55;32.22
62111;BME280;48102;47.526;19.072;2023-09-12T16:07:56;100070.19;;;31.18;32.84
62111;BME280;48102;47.526;19.072;2023-09-12T16:11:00;100062.81;;;30.87;33.35
62111;BME280;48102;47.526;19.072;2023-09-12T16:14:03;100055.31;;;30.56;33.74
62111;BME280;48102;47.526;19.072;2023-09-12T16:17:06;100053.94;;;30.27;34.28
62111;BME280;48102;47.526;19.072;2023-09-12T16:20:10;100057.69;;;29.99;34.46
62111;BME280;48102;47.526;19.072;2023-09-12T16:23:16;100061.47;;;29.79;35.46
62111;BME280;48102;47.526;19.072;2023-09-12T16:26:19;100055.16;;;29.52;35.96
62111;BME280;48102;47.526;19.072;2023-09-12T16:29:22;100060.97;;;29.29;36.42
62111;BME280;48102;47.526;19.072;2023-09-12T16:32:25;100070.47;;;29.05;36.70
62111;BME280;48102;47.526;19.072;2023-09-12T16:35:28;100064.91;;;28.78;37.46
62111;BME280;48102;47.526;19.072;2023-09-12T16:38:30;100060.19;;;28.52;37.77
62111;BME280;48102;47.526;19.072;2023-09-12T16:41:36;100059.81;;;28.27;38.34
62111;BME280;48102;47.526;19.072;2023-09-12T16:44:38;100059.62;;;28.00;38.86
62111;BME280;48102;47.526;19.072;2023-09-12T16:47:43;100057.03;;;27.71;40.02
62111;BME280;48102;47.526;19.072;2023-09-12T16:50:46;100065.28;;;27.41;40.75
62111;BME280;48102;47.526;19.072;2023-09-12T16:53:50;100057.09;;;27.13;41.94
